Time,TemperatureF,DewpointF,PressureIn,WindDirection,WindDirectionDegrees,WindSpeedMPH,WindSpeedGustMPH,Humidity,HourlyPrecipIn,Conditions,Clouds,dailyrainin,SoftwareType,DateUTC
2013-09-13 00:04:00,54.4,47.7,29.96,North,350,0.9,2.3,78,0.00,CLR,SKC,0.00,WeatherDisplay:10.37,2013-09-13 05:04:00,
2013-09-13 00:09:00,54.1,47.4,29.96,North,350,0.7,2.3,78,0.00,CLR,SKC,0.00,WeatherDisplay:10.37,2013-09-13 05:09:00,
2013-09-13 00:14:00,54.0,47.3,29.96,North,350,0.0,2.0,78,0.00,CLR,SKC,0.00,WeatherDisplay:10.37,2013-09-13 05:14:00,
2013-09-13 00:19:00,54.0,47.3,29.96,North,350,0.3,2.3,78,0.00,CLR,SKC,0.00,WeatherDisplay:10.37,2013-09-13 05:19:00,
2013-09-13 00:24:00,54.1,47.4,29.96,North,350,0.9,3.5,78,0.00,CLR,SKC,0.00,WeatherDisplay:10.37,2013-09-13 05:24:00,
2013-09-13 00:29:00,54.1,47.4,29.96,North,350,1.5,3.5,78,0.00,CLR,SKC,0.00,WeatherDisplay:10.37,2013-09-13 05:29:00,
2013-09-13 00:34:00,54.1,47.4,29.96,North,350,2.1,3.5,78,0.00,CLR,SKC,0.00,WeatherDisplay:10.37,2013-09-13 05:34:00,
2013-09-13 00:39:00,54.1,47.4,29.96,North,350,2.4,4.0,78,0.00,CLR,SKC,0.00,WeatherDisplay:10.37,2013-09-13 05:39:00,
2013-09-13 00:44:00,53.9,46.9,29.96,North,350,1.7,3.5,77,0.00,CLR,SKC,0.00,WeatherDisplay:10.37,2013-09-13 05:44:00,
2013-09-13 00:49:00,53.8,46.8,29.96,North,350,2.5,4.0,77,0.00,CLR,SKC,0.00,WeatherDisplay:10.37,2013-09-13 05:49:00,
2013-09-13 00:54:00,53.6,46.9,29.96,North,350,1.8,3.5,78,0.00,CLR,SKC,0.00,WeatherDisplay:10.37,2013-09-13 05:54:00,
2013-09-13 00:59:00,53.4,46.7,29.96,North,350,0.9,3.5,78,0.00,CLR,SKC,0.00,WeatherDisplay:10.37,2013-09-13 05:59:00,
2013-09-13 01:04:00,53.3,46.6,29.96,North,350,1.5,3.5,78,0.00,CLR,SKC,0.00,WeatherDisplay:10.37,2013-09-13 06:04:00,
2013-09-13 01:09:00,53.1,46.4,29.96,North,350,0.1,2.3,78,0.00,CLR,SKC,0.00,WeatherDisplay:10.37,2013-09-13 06:09:00,
2013-09-13 01:14:00,52.9,46.6,29.96,North,350,1.8,4.0,79,0.00,CLR,SKC,0.00,WeatherDisplay:10.37,2013-09-13 06:14:00,
2013-09-13 01:19:00,52.7,46.4,29.96,North,350,2.3,4.0,79,0.00,CLR,SKC,0.00,WeatherDisplay:10.37,2013-09-13 06:19:00,
2013-09-13 01:24:00,52.6,46.3,29.96,North,350,2.0,4.0,79,0.00,CLR,SKC,0.00,WeatherDisplay:10.37,2013-09-13 06:24:00,
2013-09-13 01:29:00,52.5,46.2,29.96,North,350,2.2,4.6,79,0.00,CLR,SKC,0.00,WeatherDisplay:10.37,2013-09-13 06:29:00,
2013-09-13 01:34:00,52.4,46.1,29.96,North,350,1.9,3.5,79,0.00,CLR,SKC,0.00,WeatherDisplay:10.37,2013-09-13 06:34:00,
2013-09-13 01:39:00,52.3,46.0,29.96,North,350,1.1,3.5,79,0.00,CLR,SKC,0.00,WeatherDisplay:10.37,2013-09-13 06:39:00,
2013-09-13 01:44:00,52.2,45.9,29.96,North,350,2.0,3.5,79,0.00,CLR,SKC,0.00,WeatherDisplay:10.37,2013-09-13 06:44:00,
2013-09-13 01:49:00,52.2,45.9,29.96,North,350,1.8,3.5,79,0.00,CLR,SKC,0.00,WeatherDisplay:10.37,2013-09-13 06:49:00,
2013-09-13 01:54:00,52.2,45.9,29.96,North,350,2.4,4.0,79,0.00,CLR,SKC,0.00,WeatherDisplay:10.37,2013-09-13 06:54:00,
2013-09-13 01:59:00,52.2,45.9,29.96,North,350,1.9,3.5,79,0.00,CLR,SKC,0.00,WeatherDisplay:10.37,2013-09-13 06:59:00,
2013-09-13 02:04:00,52.3,46.0,29.96,North,350,2.4,4.0,79,0.00,CLR,SKC,0.00,WeatherDisplay:10.37,2013-09-13 07:04:00,
2013-09-13 02:09:00,52.3,46.0,29.96,North,350,2.3,4.0,79,0.00,CLR,SKC,0.00,WeatherDisplay:10.37,2013-09-13 07:09:00,
2013-09-13 02:14:00,52.3,46.0,29.96,North,350,2.9,4.0,79,0.00,CLR,SKC,0.00,WeatherDisplay:10.37,2013-09-13 07:14:00,
2013-09-13 02:19:00,52.2,45.9,29.97,North,350,2.6,4.6,79,0.00,CLR,SKC,0.00,WeatherDisplay:10.37,2013-09-13 07:19:00,
2013-09-13 02:24:00,52.1,45.8,29.97,North,350,2.6,4.0,79,0.00,CLR,SKC,0.00,WeatherDisplay:10.37,2013-09-13 07:24:00,
2013-09-13 02:29:00,52.0,45.7,29.97,North,350,2.7,3.5,79,0.00,CLR,SKC,0.00,WeatherDisplay:10.37,2013-09-13 07:29:00,
2013-09-13 02:34:00,51.8,45.5,29.97,North,350,3.7,5.0,79,0.00,CLR,SKC,0.00,WeatherDisplay:10.37,2013-09-13 07:34:00,
2013-09-13 02:39:00,51.6,45.3,29.96,North,350,3.2,4.6,79,0.00,CLR,SKC,0.00,WeatherDisplay:10.37,2013-09-13 07:39:00,
2013-09-13 02:44:00,51.4,45.1,29.96,North,350,3.6,5.0,79,0.00,CLR,SKC,0.00,WeatherDisplay:10.37,2013-09-13 07:44:00,
2013-09-13 02:49:00,51.2,45.2,29.96,North,350,3.3,5.8,80,0.00,CLR,SKC,0.00,WeatherDisplay:10.37,2013-09-13 07:49:00,
2013-09-13 02:54:00,51.0,45.0,29.96,North,350,2.9,5.0,80,0.00,CLR,SKC,0.00,WeatherDisplay:10.37,2013-09-13 07:54:00,
2013-09-13 02:59:00,50.8,44.9,29.96,North,350,2.7,3.5,80,0.00,CLR,SKC,0.00,WeatherDisplay:10.37,2013-09-13 07:59:00,
2013-09-13 03:04:00,50.6,44.7,29.96,North,350,2.5,3.5,80,0.00,CLR,SKC,0.00,WeatherDisplay:10.37,2013-09-13 08:04:00,
2013-09-13 03:09:00,50.5,44.6,29.96,North,350,2.6,4.0,80,0.00,CLR,SKC,0.00,WeatherDisplay:10.37,2013-09-13 08:09:00,
2013-09-13 03:14:00,50.2,44.6,29.97,North,350,3.0,4.0,81,0.00,CLR,SKC,0.00,WeatherDisplay:10.37,2013-09-13 08:14:00,
2013-09-13 03:19:00,50.0,44.4,29.97,North,350,2.5,3.5,81,0.00,CLR,SKC,0.00,WeatherDisplay:10.37,2013-09-13 08:19:00,
2013-09-13 03:24:00,49.8,44.2,29.97,North,350,2.6,3.5,81,0.00,CLR,SKC,0.00,WeatherDisplay:10.37,2013-09-13 08:24:00,
2013-09-13 03:29:00,49.7,44.1,29.97,North,350,2.1,3.5,81,0.00,CLR,SKC,0.00,WeatherDisplay:10.37,2013-09-13 08:29:00,
2013-09-13 03:34:00,49.5,43.9,29.97,North,350,1.1,2.3,81,0.00,CLR,SKC,0.00,WeatherDisplay:10.37,2013-09-13 08:34:00,
2013-09-13 03:39:00,49.4,43.8,29.97,North,350,1.1,2.3,81,0.00,CLR,SKC,0.00,WeatherDisplay:10.37,2013-09-13 08:39:00,
2013-09-13 03:44:00,49.3,43.7,29.97,North,350,1.9,3.5,81,0.00,CLR,SKC,0.00,WeatherDisplay:10.37,2013-09-13 08:44:00,
2013-09-13 03:49:00,49.2,43.6,29.97,North,350,1.9,3.5,81,0.00,CLR,SKC,0.00,WeatherDisplay:10.37,2013-09-13 08:49:00,
2013-09-13 03:54:00,49.1,43.5,29.97,North,350,2.0,3.5,81,0.00,CLR,SKC,0.00,WeatherDisplay:10.37,2013-09-13 08:54:00,
2013-09-13 03:59:00,49.1,43.5,29.97,North,350,2.3,3.5,81,0.00,CLR,SKC,0.00,WeatherDisplay:10.37,2013-09-13 08:59:00,
2013-09-13 04:04:00,49.0,43.4,29.97,North,350,0.7,2.3,81,0.00,CLR,SKC,0.00,WeatherDisplay:10.37,2013-09-13 09:04:00,
2013-09-13 04:09:00,48.8,43.2,29.97,North,350,0.0,0.0,81,0.00,CLR,SKC,0.00,WeatherDisplay:10.37,2013-09-13 09:09:00,
2013-09-13 04:14:00,48.7,43.1,29.97,North,350,0.8,2.3,81,0.00,CLR,SKC,0.00,WeatherDisplay:10.37,2013-09-13 09:14:00,
2013-09-13 04:19:00,48.5,42.9,29.97,North,350,0.0,1.2,81,0.00,CLR,SKC,0.00,WeatherDisplay:10.37,2013-09-13 09:19:00,
2013-09-13 04:24:00,48.3,42.7,29.97,North,350,0.0,0.0,81,0.00,CLR,SKC,0.00,WeatherDisplay:10.37,2013-09-13 09:24:00,
2013-09-13 04:29:00,48.2,42.6,29.97,North,350,0.3,1.2,81,0.00,CLR,SKC,0.00,WeatherDisplay:10.37,2013-09-13 09:29:00,
2013-09-13 04:34:00,48.1,42.5,29.97,North,350,0.0,0.0,81,0.00,CLR,SKC,0.00,WeatherDisplay:10.37,2013-09-13 09:34:00,
2013-09-13 04:39:00,48.0,42.8,29.97,North,350,0.0,1.2,82,0.00,CLR,SKC,0.00,WeatherDisplay:10.37,2013-09-13 09:39:00,
2013-09-13 04:44:00,47.9,42.7,29.97,North,350,0.0,0.0,82,0.00,CLR,SKC,0.00,WeatherDisplay:10.37,2013-09-13 09:44:00,
2013-09-13 04:49:00,47.7,42.5,29.97,North,350,0.0,0.0,82,0.00,CLR,SKC,0.00,WeatherDisplay:10.37,2013-09-13 09:49:00,
2013-09-13 04:54:00,47.4,41.9,29.97,North,350,0.0,0.0,81,0.00,CLR,SKC,0.00,WeatherDisplay:10.37,2013-09-13 09:54:00,
2013-09-13 04:59:00,47.0,41.8,29.97,North,350,0.0,0.0,82,0.00,CLR,SKC,0.00,WeatherDisplay:10.37,2013-09-13 09:59:00,
2013-09-13 05:04:00,46.9,41.4,29.97,North,350,0.0,0.0,81,0.00,CLR,SKC,0.00,WeatherDisplay:10.37,2013-09-13 10:04:00,
2013-09-13 05:09:00,46.7,41.2,29.97,North,350,0.0,0.0,81,0.00,CLR,SKC,0.00,WeatherDisplay:10.37,2013-09-13 10:09:00,
2013-09-13 05:14:00,46.5,41.0,29.97,North,350,0.0,0.0,81,0.00,CLR,SKC,0.00,WeatherDisplay:10.37,2013-09-13 10:14:00,
2013-09-13 05:19:00,46.3,40.8,29.97,North,350,0.0,0.0,81,0.00,CLR,SKC,0.00,WeatherDisplay:10.37,2013-09-13 10:19:00,
2013-09-13 05:24:00,46.4,40.6,29.98,North,350,0.0,0.0,80,0.00,CLR,SKC,0.00,WeatherDisplay:10.37,2013-09-13 10:24:00,
2013-09-13 05:29:00,46.4,40.6,29.98,North,350,0.0,0.0,80,0.00,CLR,SKC,0.00,WeatherDisplay:10.37,2013-09-13 10:29:00,
2013-09-13 05:34:00,46.4,40.2,29.98,North,350,0.0,0.0,79,0.00,CLR,SKC,0.00,WeatherDisplay:10.37,2013-09-13 10:34:00,
2013-09-13 05:39:00,46.1,40.3,29.98,North,350,0.0,0.0,80,0.00,CLR,SKC,0.00,WeatherDisplay:10.37,2013-09-13 10:39:00,
2013-09-13 05:44:00,46.1,40.3,29.98,North,350,0.0,0.0,80,0.00,CLR,SKC,0.00,WeatherDisplay:10.37,2013-09-13 10:44:00,
2013-09-13 05:49:00,46.2,40.0,29.98,North,350,0.0,0.0,79,0.00,CLR,SKC,0.00,WeatherDisplay:10.37,2013-09-13 10:49:00,
2013-09-13 05:54:00,46.3,40.1,29.98,North,350,0.0,0.0,79,0.00,CLR,SKC,0.00,WeatherDisplay:10.37,2013-09-13 10:54:00,
2013-09-13 05:59:00,46.4,40.2,29.98,North,350,0.0,0.0,79,0.00,CLR,SKC,0.00,WeatherDisplay:10.37,2013-09-13 10:59:00,
2013-09-13 06:04:00,46.4,40.2,29.98,North,350,0.0,0.0,79,0.00,CLR,SKC,0.00,WeatherDisplay:10.37,2013-09-13 11:04:00,
2013-09-13 06:09:00,46.3,40.1,29.98,North,350,0.0,0.0,79,0.00,CLR,SKC,0.00,WeatherDisplay:10.37,2013-09-13 11:09:00,
2013-09-13 06:14:00,46.1,40.3,29.98,North,350,0.0,0.0,80,0.00,CLR,SKC,0.00,WeatherDisplay:10.37,2013-09-13 11:14:00,
2013-09-13 06:19:00,46.0,39.9,29.99,North,350,0.0,0.0,79,0.00,CLR,SKC,0.00,WeatherDisplay:10.37,2013-09-13 11:19:00,
2013-09-13 06:24:00,45.9,40.1,29.99,North,350,0.0,0.0,80,0.00,CLR,SKC,0.00,WeatherDisplay:10.37,2013-09-13 11:24:00,
2013-09-13 06:29:00,45.8,39.7,29.99,North,350,0.6,1.2,79,0.00,CLR,SKC,0.00,WeatherDisplay:10.37,2013-09-13 11:29:00,
2013-09-13 06:34:00,45.7,39.6,29.99,North,350,0.0,1.2,79,0.00,CLR,SKC,0.00,WeatherDisplay:10.37,2013-09-13 11:34:00,
2013-09-13 06:39:00,45.7,39.6,29.99,North,350,0.0,0.0,79,0.00,CLR,SKC,0.00,WeatherDisplay:10.37,2013-09-13 11:39:00,
2013-09-13 06:44:00,45.6,39.5,29.99,North,350,0.0,0.0,79,0.00,CLR,SKC,0.00,WeatherDisplay:10.37,2013-09-13 11:44:00,
2013-09-13 06:49:00,45.5,39.4,29.99,North,350,0.0,0.0,79,0.00,CLR,SKC,0.00,WeatherDisplay:10.37,2013-09-13 11:49:00,
2013-09-13 06:54:00,45.3,39.2,30.00,North,350,0.0,0.0,79,0.00,CLR,SKC,0.00,WeatherDisplay:10.37,2013-09-13 11:54:00,
2013-09-13 06:59:00,45.1,39.3,30.00,North,350,0.0,0.0,80,0.00,CLR,SKC,0.00,WeatherDisplay:10.37,2013-09-13 11:59:00,
2013-09-13 07:04:00,44.8,39.0,30.00,North,350,0.0,0.0,80,0.00,CLR,SKC,0.00,WeatherDisplay:10.37,2013-09-13 12:04:00,
2013-09-13 07:09:00,44.7,38.6,30.00,North,350,0.0,0.0,79,0.00,CLR,SKC,0.00,WeatherDisplay:10.37,2013-09-13 12:09:00,
2013-09-13 07:14:00,44.7,38.6,30.01,North,350,0.0,0.0,79,0.00,CLR,SKC,0.00,WeatherDisplay:10.37,2013-09-13 12:14:00,
2013-09-13 07:19:00,44.6,38.5,30.01,North,350,0.0,0.0,79,0.00,CLR,SKC,0.00,WeatherDisplay:10.37,2013-09-13 12:19:00,
2013-09-13 07:24:00,44.6,38.5,30.01,North,350,0.0,0.0,79,0.00,CLR,SKC,0.00,WeatherDisplay:10.37,2013-09-13 12:24:00,
2013-09-13 07:29:00,44.6,38.2,30.01,North,350,0.0,0.0,78,0.00,CLR,SKC,0.00,WeatherDisplay:10.37,2013-09-13 12:29:00,
2013-09-13 07:34:00,44.8,38.4,30.01,North,350,0.0,0.0,78,0.00,CLR,SKC,0.00,WeatherDisplay:10.37,2013-09-13 12:34:00,
2013-09-13 07:39:00,45.4,38.3,30.01,North,350,0.0,0.0,76,0.00,CLR,SKC,0.00,WeatherDisplay:10.37,2013-09-13 12:39:00,
2013-09-13 07:44:00,46.5,38.3,30.01,North,350,0.0,0.0,73,0.00,CLR,SKC,0.00,WeatherDisplay:10.37,2013-09-13 12:44:00,
2013-09-13 07:49:00,47.8,39.6,30.02,North,350,0.0,0.0,73,0.00,CLR,SKC,0.00,WeatherDisplay:10.37,2013-09-13 12:49:00,
2013-09-13 07:54:00,49.5,41.2,30.02,North,350,0.0,0.0,73,0.00,CLR,SKC,0.00,WeatherDisplay:10.37,2013-09-13 12:54:00,
2013-09-13 07:59:00,51.7,45.7,30.01,North,350,0.0,0.0,80,0.00,CLR,SKC,0.00,WeatherDisplay:10.37,2013-09-13 12:59:00,
2013-09-13 08:04:00,52.6,46.9,30.02,North,350,0.0,0.0,81,0.00,CLR,SKC,0.00,WeatherDisplay:10.37,2013-09-13 13:04:00,
2013-09-13 08:09:00,53.8,47.8,30.01,North,350,0.0,0.0,80,0.00,CLR,SKC,0.00,WeatherDisplay:10.37,2013-09-13 13:09:00,
2013-09-13 08:14:00,55.3,48.9,30.01,North,350,0.0,0.0,79,0.00,CLR,SKC,0.00,WeatherDisplay:10.37,2013-09-13 13:14:00,
2013-09-13 08:19:00,56.2,48.7,30.01,North,350,0.0,0.0,76,0.00,CLR,SKC,0.00,WeatherDisplay:10.37,2013-09-13 13:19:00,
2013-09-13 08:24:00,56.7,48.9,30.01,North,350,0.6,2.0,75,0.00,CLR,SKC,0.00,WeatherDisplay:10.37,2013-09-13 13:24:00,
2013-09-13 08:29:00,56.5,48.3,30.01,North,350,0.2,2.3,74,0.00,CLR,SKC,0.00,WeatherDisplay:10.37,2013-09-13 13:29:00,
2013-09-13 08:34:00,55.9,48.1,30.01,North,350,0.3,2.3,75,0.00,CLR,SKC,0.00,WeatherDisplay:10.37,2013-09-13 13:34:00,
2013-09-13 08:39:00,55.6,48.5,30.01,North,350,0.2,2.3,77,0.00,CLR,SKC,0.00,WeatherDisplay:10.37,2013-09-13 13:39:00,
2013-09-13 08:44:00,55.7,48.2,30.02,North,350,0.4,2.3,76,0.00,CLR,SKC,0.00,WeatherDisplay:10.37,2013-09-13 13:44:00,
2013-09-13 08:49:00,56.1,48.6,30.01,North,350,0.5,2.3,76,0.00,CLR,SKC,0.00,WeatherDisplay:10.37,2013-09-13 13:49:00,
2013-09-13 08:54:00,56.4,48.6,30.01,North,350,0.9,3.5,75,0.00,CLR,SKC,0.00,WeatherDisplay:10.37,2013-09-13 13:54:00,
2013-09-13 08:59:00,56.6,48.8,30.02,North,350,0.7,2.3,75,0.00,CLR,SKC,0.00,WeatherDisplay:10.37,2013-09-13 13:59:00,
2013-09-13 09:04:00,57.1,48.9,30.02,North,355,0.6,3.5,74,0.00,CLR,SKC,0.00,WeatherDisplay:10.37,2013-09-13 14:04:00,
2013-09-13 09:09:00,57.5,49.6,30.02,North,5,1.2,4.0,75,0.00,CLR,SKC,0.00,WeatherDisplay:10.37,2013-09-13 14:09:00,
2013-09-13 09:14:00,57.8,49.2,30.02,NE,36,2.7,5.0,73,0.00,CLR,SKC,0.00,WeatherDisplay:10.37,2013-09-13 14:14:00,
2013-09-13 09:19:00,57.8,49.2,30.02,NE,44,2.4,4.0,73,0.00,CLR,SKC,0.00,WeatherDisplay:10.37,2013-09-13 14:19:00,
2013-09-13 09:24:00,57.9,48.6,30.02,ENE,61,2.3,4.6,71,0.00,CLR,SKC,0.00,WeatherDisplay:10.37,2013-09-13 14:24:00,
2013-09-13 09:29:00,58.4,49.4,30.02,ENE,76,3.3,7.0,72,0.00,CLR,SKC,0.00,WeatherDisplay:10.37,2013-09-13 14:29:00,
2013-09-13 09:34:00,58.7,48.9,30.02,ESE,110,2.8,4.6,70,0.00,CLR,SKC,0.00,WeatherDisplay:10.37,2013-09-13 14:34:00,
2013-09-13 09:39:00,58.9,49.1,30.02,SE,125,4.3,8.1,70,0.00,CLR,SKC,0.00,WeatherDisplay:10.37,2013-09-13 14:39:00,
2013-09-13 09:44:00,59.0,48.8,30.02,SE,127,1.8,5.8,69,0.00,CLR,SKC,0.00,WeatherDisplay:10.37,2013-09-13 14:44:00,
2013-09-13 09:49:00,59.3,49.1,30.02,SE,138,3.5,8.0,69,0.00,CLR,SKC,0.00,WeatherDisplay:10.37,2013-09-13 14:49:00,
2013-09-13 09:54:00,60.0,49.0,30.02,SE,140,5.4,9.2,67,0.00,CLR,SKC,0.00,WeatherDisplay:10.37,2013-09-13 14:54:00,
2013-09-13 09:59:00,60.4,48.6,30.02,SE,138,4.6,6.0,65,0.00,CLR,SKC,0.00,WeatherDisplay:10.37,2013-09-13 14:59:00,
2013-09-13 10:04:00,60.5,48.3,30.02,SE,135,3.2,5.0,64,0.00,CLR,SKC,0.00,WeatherDisplay:10.37,2013-09-13 15:04:00,
2013-09-13 10:09:00,60.8,46.8,30.02,SE,134,3.9,6.0,60,0.00,CLR,SKC,0.00,WeatherDisplay:10.37,2013-09-13 15:09:00,
2013-09-13 10:14:00,60.9,47.4,30.02,SE,132,3.4,5.0,61,0.00,CLR,SKC,0.00,WeatherDisplay:10.37,2013-09-13 15:14:00,
2013-09-13 10:19:00,61.1,47.5,30.02,SE,130,2.9,4.6,61,0.00,CLR,SKC,0.00,WeatherDisplay:10.37,2013-09-13 15:19:00,
2013-09-13 10:24:00,61.5,47.0,30.02,SE,130,2.1,5.8,59,0.00,CLR,SKC,0.00,WeatherDisplay:10.37,2013-09-13 15:24:00,
2013-09-13 10:29:00,61.7,45.8,30.02,SE,128,3.1,5.8,56,0.00,CLR,SKC,0.00,WeatherDisplay:10.37,2013-09-13 15:29:00,
2013-09-13 10:34:00,61.5,47.0,30.02,SE,128,2.8,4.6,59,0.00,CLR,SKC,0.00,WeatherDisplay:10.37,2013-09-13 15:34:00,
2013-09-13 10:39:00,62.0,47.0,30.02,SE,128,1.8,4.6,58,0.00,CLR,SKC,0.00,WeatherDisplay:10.37,2013-09-13 15:39:00,
2013-09-13 10:44:00,62.3,47.3,30.02,SE,127,0.5,5.8,58,0.00,CLR,SKC,0.00,WeatherDisplay:10.37,2013-09-13 15:44:00,
2013-09-13 10:49:00,62.4,47.0,30.02,SE,127,1.2,3.0,57,0.00,CLR,SKC,0.00,WeatherDisplay:10.37,2013-09-13 15:49:00,
2013-09-13 10:54:00,62.6,47.1,30.02,SE,127,0.1,1.2,57,0.00,CLR,SKC,0.00,WeatherDisplay:10.37,2013-09-13 15:54:00,
2013-09-13 10:59:00,62.9,47.9,30.02,ESE,121,1.9,6.9,58,0.00,CLR,SKC,0.00,WeatherDisplay:10.37,2013-09-13 15:59:00,
2013-09-13 11:04:00,63.8,48.3,30.02,ESE,121,4.2,7.0,57,0.00,CLR,SKC,0.00,WeatherDisplay:10.37,2013-09-13 16:04:00,
2013-09-13 11:09:00,64.0,47.5,30.02,ESE,121,0.2,3.5,55,0.00,CLR,SKC,0.00,WeatherDisplay:10.37,2013-09-13 16:09:00,
2013-09-13 11:14:00,63.8,46.8,30.02,ESE,121,0.6,2.3,54,0.00,CLR,SKC,0.00,WeatherDisplay:10.37,2013-09-13 16:14:00,
2013-09-13 11:19:00,64.2,48.2,30.02,SE,145,3.5,7.0,56,0.00,CLR,SKC,0.00,WeatherDisplay:10.37,2013-09-13 16:19:00,
2013-09-13 11:24:00,64.4,47.4,30.01,SE,145,1.0,4.6,54,0.00,CLR,SKC,0.00,WeatherDisplay:10.37,2013-09-13 16:24:00,
2013-09-13 11:29:00,64.4,46.4,30.01,SE,145,0.1,3.5,52,0.00,CLR,SKC,0.00,WeatherDisplay:10.37,2013-09-13 16:29:00,
2013-09-13 11:34:00,64.8,47.8,30.01,SE,145,1.7,4.0,54,0.00,CLR,SKC,0.00,WeatherDisplay:10.37,2013-09-13 16:34:00,
2013-09-13 11:39:00,65.4,47.3,30.01,SE,145,0.8,3.5,52,0.00,CLR,SKC,0.00,WeatherDisplay:10.37,2013-09-13 16:39:00,
2013-09-13 11:44:00,66.1,48.0,30.01,SE,145,4.3,6.0,52,0.00,CLR,SKC,0.00,WeatherDisplay:10.37,2013-09-13 16:44:00,
2013-09-13 11:49:00,65.9,46.7,30.01,SE,145,2.6,4.6,50,0.00,CLR,SKC,0.00,WeatherDisplay:10.37,2013-09-13 16:49:00,
2013-09-13 11:54:00,65.2,48.1,30.01,SE,145,3.9,5.0,54,0.00,CLR,SKC,0.00,WeatherDisplay:10.37,2013-09-13 16:54:00,
2013-09-13 11:59:00,65.4,47.3,30.00,SE,145,3.8,6.0,52,0.00,CLR,SKC,0.00,WeatherDisplay:10.37,2013-09-13 16:59:00,
2013-09-13 12:04:00,65.8,46.6,30.00,SE,145,3.0,5.8,50,0.00,CLR,SKC,0.00,WeatherDisplay:10.37,2013-09-13 17:04:00,
2013-09-13 12:09:00,65.9,47.3,30.00,SE,140,0.7,4.6,51,0.00,CLR,SKC,0.00,WeatherDisplay:10.37,2013-09-13 17:09:00,
2013-09-13 12:14:00,66.4,46.1,30.00,SE,140,2.5,4.6,48,0.00,CLR,SKC,0.00,WeatherDisplay:10.37,2013-09-13 17:14:00,
2013-09-13 12:19:00,66.3,46.6,29.99,SE,140,0.1,2.3,49,0.00,CLR,SKC,0.00,WeatherDisplay:10.37,2013-09-13 17:19:00,
2013-09-13 12:24:00,66.5,47.8,29.99,SE,139,4.4,7.0,51,0.00,CLR,SKC,0.00,WeatherDisplay:10.37,2013-09-13 17:24:00,
2013-09-13 12:29:00,66.5,47.3,29.99,SE,139,2.8,8.1,50,0.00,CLR,SKC,0.00,WeatherDisplay:10.37,2013-09-13 17:29:00,
2013-09-13 12:34:00,66.4,46.1,29.99,SE,142,3.2,5.8,48,0.00,CLR,SKC,0.00,WeatherDisplay:10.37,2013-09-13 17:34:00,
2013-09-13 12:39:00,66.4,47.2,29.99,SE,141,1.0,3.5,50,0.00,CLR,SKC,0.00,WeatherDisplay:10.37,2013-09-13 17:39:00,
2013-09-13 12:44:00,66.7,46.9,29.99,SE,140,0.1,3.5,49,0.00,CLR,SKC,0.00,WeatherDisplay:10.37,2013-09-13 17:44:00,
2013-09-13 12:49:00,67.2,47.9,29.98,SE,140,1.4,3.5,50,0.00,CLR,SKC,0.00,WeatherDisplay:10.37,2013-09-13 17:49:00,
2013-09-13 12:54:00,67.6,47.2,29.98,SE,139,1.0,3.5,48,0.00,CLR,SKC,0.00,WeatherDisplay:10.37,2013-09-13 17:54:00,
2013-09-13 12:59:00,67.9,47.5,29.98,SE,139,1.0,3.5,48,0.00,CLR,SKC,0.00,WeatherDisplay:10.37,2013-09-13 17:59:00,
2013-09-13 13:04:00,68.0,47.0,29.98,SE,130,2.5,4.0,47,0.00,CLR,SKC,0.00,WeatherDisplay:10.37,2013-09-13 18:04:00,
2013-09-13 13:09:00,67.9,47.5,29.98,SE,130,1.0,3.5,48,0.00,CLR,SKC,0.00,WeatherDisplay:10.37,2013-09-13 18:09:00,
2013-09-13 13:14:00,68.0,46.4,29.98,SE,130,1.8,5.8,46,0.00,CLR,SKC,0.00,WeatherDisplay:10.37,2013-09-13 18:14:00,
2013-09-13 13:19:00,67.9,48.6,29.97,SE,130,1.1,3.5,50,0.00,CLR,SKC,0.00,WeatherDisplay:10.37,2013-09-13 18:19:00,
2013-09-13 13:24:00,67.6,48.8,29.98,SE,126,0.2,2.3,51,0.00,CLR,SKC,0.00,WeatherDisplay:10.37,2013-09-13 18:24:00,
2013-09-13 13:29:00,68.1,50.3,29.97,East,90,0.3,6.9,53,0.00,CLR,SKC,0.00,WeatherDisplay:10.37,2013-09-13 18:29:00,
2013-09-13 13:34:00,68.8,49.4,29.97,East,90,0.6,3.5,50,0.00,CLR,SKC,0.00,WeatherDisplay:10.37,2013-09-13 18:34:00,
2013-09-13 13:39:00,69.1,46.9,29.96,East,90,0.4,2.3,45,0.00,CLR,SKC,0.00,WeatherDisplay:10.37,2013-09-13 18:39:00,
2013-09-13 13:44:00,69.6,47.3,29.96,East,90,0.5,3.5,45,0.00,CLR,SKC,0.00,WeatherDisplay:10.37,2013-09-13 18:44:00,
2013-09-13 13:49:00,69.7,48.6,29.96,ESE,108,2.1,7.0,47,0.00,CLR,SKC,0.00,WeatherDisplay:10.37,2013-09-13 18:49:00,
2013-09-13 13:54:00,69.1,46.9,29.96,SE,135,4.4,9.2,45,0.00,CLR,SKC,0.00,WeatherDisplay:10.37,2013-09-13 18:54:00,
2013-09-13 13:59:00,68.5,46.9,29.95,SE,131,1.7,3.5,46,0.00,CLR,SKC,0.00,WeatherDisplay:10.37,2013-09-13 18:59:00,
2013-09-13 14:04:00,68.4,46.8,29.95,SE,131,1.4,4.0,46,0.00,CLR,SKC,0.00,WeatherDisplay:10.37,2013-09-13 19:04:00,
2013-09-13 14:09:00,68.4,47.4,29.95,SE,131,1.4,4.0,47,0.00,CLR,SKC,0.00,WeatherDisplay:10.37,2013-09-13 19:09:00,
2013-09-13 14:14:00,68.9,47.8,29.95,SE,131,2.6,4.6,47,0.00,CLR,SKC,0.00,WeatherDisplay:10.37,2013-09-13 19:14:00,
2013-09-13 14:19:00,68.9,47.3,29.95,SE,136,3.1,6.0,46,0.00,CLR,SKC,0.00,WeatherDisplay:10.37,2013-09-13 19:19:00,
2013-09-13 14:24:00,68.7,47.1,29.95,SE,137,4.4,7.0,46,0.00,CLR,SKC,0.00,WeatherDisplay:10.37,2013-09-13 19:24:00,
2013-09-13 14:29:00,68.4,46.8,29.94,SE,137,2.5,4.6,46,0.00,CLR,SKC,0.00,WeatherDisplay:10.37,2013-09-13 19:29:00,
2013-09-13 14:34:00,68.3,47.8,29.94,SE,137,0.0,2.3,48,0.00,CLR,SKC,0.00,WeatherDisplay:10.37,2013-09-13 19:34:00,
2013-09-13 14:39:00,68.4,49.0,29.94,SE,137,0.1,1.2,50,0.00,CLR,SKC,0.00,WeatherDisplay:10.37,2013-09-13 19:39:00,
2013-09-13 14:44:00,69.0,46.8,29.94,SE,137,1.1,3.5,45,0.00,CLR,SKC,0.00,WeatherDisplay:10.37,2013-09-13 19:44:00,
2013-09-13 14:49:00,69.4,47.7,29.93,SE,137,0.0,1.2,46,0.00,CLR,SKC,0.00,WeatherDisplay:10.37,2013-09-13 19:49:00,
2013-09-13 14:54:00,69.6,48.5,29.93,ESE,116,1.3,4.6,47,0.00,CLR,SKC,0.00,WeatherDisplay:10.37,2013-09-13 19:54:00,
2013-09-13 14:59:00,69.9,48.7,29.93,ESE,116,0.1,1.2,47,0.00,CLR,SKC,0.00,WeatherDisplay:10.37,2013-09-13 19:59:00,
2013-09-13 15:04:00,70.2,47.9,29.93,ESE,123,1.5,4.6,45,0.00,CLR,SKC,0.00,WeatherDisplay:10.37,2013-09-13 20:04:00,
2013-09-13 15:09:00,70.4,48.0,29.93,East,88,0.4,6.9,45,0.00,CLR,SKC,0.00,WeatherDisplay:10.37,2013-09-13 20:09:00,
2013-09-13 15:14:00,70.2,48.4,29.93,East,88,0.5,2.3,46,0.00,CLR,SKC,0.00,WeatherDisplay:10.37,2013-09-13 20:14:00,
2013-09-13 15:19:00,69.9,48.7,29.92,East,88,0.0,1.2,47,0.00,CLR,SKC,0.00,WeatherDisplay:10.37,2013-09-13 20:19:00,
2013-09-13 15:24:00,69.7,48.0,29.92,East,88,1.5,6.0,46,0.00,CLR,SKC,0.00,WeatherDisplay:10.37,2013-09-13 20:24:00,
2013-09-13 15:29:00,69.8,47.5,29.92,East,88,1.9,6.0,45,0.00,CLR,SKC,0.00,WeatherDisplay:10.37,2013-09-13 20:29:00,
2013-09-13 15:34:00,70.1,48.4,29.92,East,88,0.1,1.2,46,0.00,CLR,SKC,0.00,WeatherDisplay:10.37,2013-09-13 20:34:00,
2013-09-13 15:39:00,70.4,50.3,29.92,East,88,0.3,2.3,49,0.00,CLR,SKC,0.00,WeatherDisplay:10.37,2013-09-13 20:39:00,
2013-09-13 15:44:00,70.3,47.9,29.92,East,88,0.0,2.3,45,0.00,CLR,SKC,0.00,WeatherDisplay:10.37,2013-09-13 20:44:00,
2013-09-13 15:49:00,70.1,47.2,29.92,East,88,1.5,5.0,44,0.00,CLR,SKC,0.00,WeatherDisplay:10.37,2013-09-13 20:49:00,
2013-09-13 15:54:00,70.0,47.1,29.92,East,88,1.4,2.3,44,0.00,CLR,SKC,0.00,WeatherDisplay:10.37,2013-09-13 20:54:00,
2013-09-13 15:59:00,70.4,47.4,29.91,East,88,1.8,6.0,44,0.00,CLR,SKC,0.00,WeatherDisplay:10.37,2013-09-13 20:59:00,
2013-09-13 16:04:00,70.5,48.1,29.91,East,88,0.2,3.5,45,0.00,CLR,SKC,0.00,WeatherDisplay:10.37,2013-09-13 21:04:00,
2013-09-13 16:09:00,70.5,46.9,29.91,East,88,0.6,3.5,43,0.00,CLR,SKC,0.00,WeatherDisplay:10.37,2013-09-13 21:09:00,
2013-09-13 16:14:00,70.0,47.1,29.91,East,88,0.7,3.5,44,0.00,CLR,SKC,0.00,WeatherDisplay:10.37,2013-09-13 21:14:00,
2013-09-13 16:19:00,69.2,46.9,29.91,East,93,1.3,5.8,45,0.00,CLR,SKC,0.00,WeatherDisplay:10.37,2013-09-13 21:19:00,
2013-09-13 16:24:00,68.5,45.7,29.91,East,93,0.1,2.3,44,0.00,CLR,SKC,0.00,WeatherDisplay:10.37,2013-09-13 21:24:00,
2013-09-13 16:29:00,68.0,47.6,29.91,East,93,0.0,1.2,48,0.00,CLR,SKC,0.00,WeatherDisplay:10.37,2013-09-13 21:29:00,
2013-09-13 16:34:00,67.9,48.0,29.91,East,93,0.2,3.5,49,0.00,CLR,SKC,0.00,WeatherDisplay:10.37,2013-09-13 21:34:00,
2013-09-13 16:39:00,67.8,47.4,29.91,East,93,1.1,3.5,48,0.00,CLR,SKC,0.00,WeatherDisplay:10.37,2013-09-13 21:39:00,
2013-09-13 16:44:00,67.7,47.8,29.90,East,93,0.9,3.5,49,0.00,CLR,SKC,0.00,WeatherDisplay:10.37,2013-09-13 21:44:00,
2013-09-13 16:49:00,67.7,46.7,29.90,East,93,0.6,2.3,47,0.00,CLR,SKC,0.00,WeatherDisplay:10.37,2013-09-13 21:49:00,
2013-09-13 16:54:00,67.6,46.1,29.90,East,93,0.2,1.2,46,0.00,CLR,SKC,0.00,WeatherDisplay:10.37,2013-09-13 21:54:00,
2013-09-13 16:59:00,67.4,45.9,29.90,East,93,0.1,1.2,46,0.00,CLR,SKC,0.00,WeatherDisplay:10.37,2013-09-13 21:59:00,
2013-09-13 17:04:00,67.1,47.3,29.90,East,93,1.6,4.6,49,0.00,CLR,SKC,0.00,WeatherDisplay:10.37,2013-09-13 22:04:00,
2013-09-13 17:09:00,66.9,45.4,29.90,East,93,0.5,2.3,46,0.00,CLR,SKC,0.00,WeatherDisplay:10.37,2013-09-13 22:09:00,
2013-09-13 17:14:00,66.8,45.9,29.90,East,93,0.1,1.0,47,0.00,CLR,SKC,0.00,WeatherDisplay:10.37,2013-09-13 22:14:00,
2013-09-13 17:19:00,66.6,45.2,29.90,East,93,0.0,1.2,46,0.00,CLR,SKC,0.00,WeatherDisplay:10.37,2013-09-13 22:19:00,
2013-09-13 17:24:00,66.4,45.5,29.90,East,93,0.2,1.2,47,0.00,CLR,SKC,0.00,WeatherDisplay:10.37,2013-09-13 22:24:00,
2013-09-13 17:29:00,66.3,46.0,29.90,East,93,0.0,2.3,48,0.00,CLR,SKC,0.00,WeatherDisplay:10.37,2013-09-13 22:29:00,
2013-09-13 17:34:00,66.2,45.9,29.89,East,93,0.5,5.8,48,0.00,CLR,SKC,0.00,WeatherDisplay:10.37,2013-09-13 22:34:00,
2013-09-13 17:39:00,66.1,46.4,29.90,East,93,0.0,3.5,49,0.00,CLR,SKC,0.00,WeatherDisplay:10.37,2013-09-13 22:39:00,
2013-09-13 17:44:00,66.1,46.4,29.90,East,93,0.4,3.5,49,0.00,CLR,SKC,0.00,WeatherDisplay:10.37,2013-09-13 22:44:00,
2013-09-13 17:49:00,65.9,46.7,29.90,East,93,0.7,3.5,50,0.00,CLR,SKC,0.00,WeatherDisplay:10.37,2013-09-13 22:49:00,
2013-09-13 17:54:00,65.9,46.2,29.90,East,93,0.0,0.0,49,0.00,CLR,SKC,0.00,WeatherDisplay:10.37,2013-09-13 22:54:00,
2013-09-13 17:59:00,65.7,46.0,29.90,East,93,0.5,2.3,49,0.00,CLR,SKC,0.00,WeatherDisplay:10.37,2013-09-13 22:59:00,
2013-09-13 18:04:00,65.5,45.8,29.90,East,93,0.0,0.0,49,0.00,CLR,SKC,0.00,WeatherDisplay:10.37,2013-09-13 23:04:00,
2013-09-13 18:09:00,65.4,46.3,29.89,East,93,0.0,0.0,50,0.00,CLR,SKC,0.00,WeatherDisplay:10.37,2013-09-13 23:09:00,
2013-09-13 18:14:00,65.3,46.7,29.89,East,93,0.0,2.3,51,0.00,CLR,SKC,0.00,WeatherDisplay:10.37,2013-09-13 23:14:00,
2013-09-13 18:19:00,65.2,47.1,29.89,East,93,0.1,1.0,52,0.00,CLR,SKC,0.00,WeatherDisplay:10.37,2013-09-13 23:19:00,
2013-09-13 18:24:00,65.0,47.9,29.89,East,93,0.0,0.0,54,0.00,CLR,SKC,0.00,WeatherDisplay:10.37,2013-09-13 23:24:00,
2013-09-13 18:29:00,64.7,47.2,29.89,East,93,0.0,1.0,53,0.00,CLR,SKC,0.00,WeatherDisplay:10.37,2013-09-13 23:29:00,
2013-09-13 18:34:00,64.5,47.0,29.89,East,93,0.0,0.0,53,0.00,CLR,SKC,0.00,WeatherDisplay:10.37,2013-09-13 23:34:00,
2013-09-13 18:39:00,64.3,46.8,29.89,East,93,0.0,0.0,53,0.00,CLR,SKC,0.00,WeatherDisplay:10.37,2013-09-13 23:39:00,
2013-09-13 18:44:00,64.1,47.1,29.88,East,93,0.0,0.0,54,0.00,CLR,SKC,0.00,WeatherDisplay:10.37,2013-09-13 23:44:00,
2013-09-13 18:49:00,63.9,46.4,29.88,East,93,0.0,0.0,53,0.00,CLR,SKC,0.00,WeatherDisplay:10.37,2013-09-13 23:49:00,
2013-09-13 18:54:00,63.6,47.6,29.88,East,93,0.0,0.0,56,0.00,CLR,SKC,0.00,WeatherDisplay:10.37,2013-09-13 23:54:00,
2013-09-13 18:59:00,63.3,47.8,29.88,East,93,0.0,0.0,57,0.00,CLR,SKC,0.00,WeatherDisplay:10.37,2013-09-13 23:59:00,
2013-09-13 19:04:00,63.1,47.6,29.88,East,93,0.0,0.0,57,0.00,CLR,SKC,0.00,WeatherDisplay:10.37,2013-09-14 00:04:00,
2013-09-13 19:09:00,62.9,47.0,29.87,East,93,0.0,0.0,56,0.00,CLR,SKC,0.00,WeatherDisplay:10.37,2013-09-14 00:09:00,
2013-09-13 19:14:00,62.7,48.2,29.87,East,93,0.0,0.0,59,0.00,CLR,SKC,0.00,WeatherDisplay:10.37,2013-09-14 00:14:00,
2013-09-13 19:19:00,62.4,48.3,29.87,East,93,0.0,0.0,60,0.00,CLR,SKC,0.00,WeatherDisplay:10.37,2013-09-14 00:19:00,
2013-09-13 19:24:00,61.9,49.2,29.87,East,93,0.0,0.0,63,0.00,CLR,SKC,0.00,WeatherDisplay:10.37,2013-09-14 00:24:00,
2013-09-13 19:29:00,61.5,49.6,29.87,East,93,0.0,0.0,65,0.00,CLR,SKC,0.00,WeatherDisplay:10.37,2013-09-14 00:29:00,
2013-09-13 19:34:00,60.7,48.9,29.87,East,93,0.0,0.0,65,0.00,CLR,SKC,0.00,WeatherDisplay:10.37,2013-09-14 00:34:00,
2013-09-13 19:39:00,60.2,48.4,29.87,East,93,0.0,0.0,65,0.00,CLR,SKC,0.00,WeatherDisplay:10.37,2013-09-14 00:39:00,
2013-09-13 19:44:00,59.7,47.9,29.87,East,93,0.0,0.0,65,0.00,CLR,SKC,0.00,WeatherDisplay:10.37,2013-09-14 00:44:00,
2013-09-13 19:49:00,59.4,48.0,29.87,East,93,0.0,0.0,66,0.00,CLR,SKC,0.00,WeatherDisplay:10.37,2013-09-14 00:49:00,
2013-09-13 19:54:00,59.1,47.3,29.88,East,93,0.0,0.0,65,0.00,CLR,SKC,0.00,WeatherDisplay:10.37,2013-09-14 00:54:00,
2013-09-13 19:59:00,59.0,47.2,29.88,East,93,0.0,0.0,65,0.00,CLR,SKC,0.00,WeatherDisplay:10.37,2013-09-14 00:59:00,
2013-09-13 20:04:00,58.7,47.8,29.88,East,93,0.0,0.0,67,0.00,CLR,SKC,0.00,WeatherDisplay:10.37,2013-09-14 01:04:00,
2013-09-13 20:09:00,58.5,47.6,29.88,East,93,0.0,0.0,67,0.00,CLR,SKC,0.00,WeatherDisplay:10.37,2013-09-14 01:09:00,
2013-09-13 20:14:00,58.3,47.8,29.88,East,93,0.0,0.0,68,0.00,CLR,SKC,0.00,WeatherDisplay:10.37,2013-09-14 01:14:00,
2013-09-13 20:19:00,57.8,47.7,29.88,East,93,0.0,0.0,69,0.00,CLR,SKC,0.00,WeatherDisplay:10.37,2013-09-14 01:19:00,
2013-09-13 20:24:00,57.2,47.1,29.88,East,93,0.0,0.0,69,0.00,CLR,SKC,0.00,WeatherDisplay:10.37,2013-09-14 01:24:00,
2013-09-13 20:29:00,56.6,46.9,29.88,East,93,0.0,0.0,70,0.00,CLR,SKC,0.00,WeatherDisplay:10.37,2013-09-14 01:29:00,
2013-09-13 20:34:00,56.0,46.7,29.88,East,93,0.0,0.0,71,0.00,CLR,SKC,0.00,WeatherDisplay:10.37,2013-09-14 01:34:00,
2013-09-13 20:39:00,55.7,47.2,29.88,East,93,0.0,0.0,73,0.00,CLR,SKC,0.00,WeatherDisplay:10.37,2013-09-14 01:39:00,
2013-09-13 20:44:00,55.3,47.2,29.88,East,93,0.0,0.0,74,0.00,CLR,SKC,0.00,WeatherDisplay:10.37,2013-09-14 01:44:00,
2013-09-13 20:49:00,54.9,46.8,29.88,East,93,0.0,0.0,74,0.00,CLR,SKC,0.00,WeatherDisplay:10.37,2013-09-14 01:49:00,
2013-09-13 20:54:00,54.4,46.6,29.88,East,93,0.0,0.0,75,0.00,CLR,SKC,0.00,WeatherDisplay:10.37,2013-09-14 01:54:00,
2013-09-13 20:59:00,53.8,46.4,29.88,East,93,0.0,0.0,76,0.00,CLR,SKC,0.00,WeatherDisplay:10.37,2013-09-14 01:59:00,
2013-09-13 21:04:00,53.3,45.9,29.88,East,93,0.0,0.0,76,0.00,CLR,SKC,0.00,WeatherDisplay:10.37,2013-09-14 02:04:00,
2013-09-13 21:09:00,53.0,46.0,29.88,East,93,0.0,0.0,77,0.00,CLR,SKC,0.00,WeatherDisplay:10.37,2013-09-14 02:09:00,
2013-09-13 21:14:00,52.8,45.8,29.88,East,93,0.0,0.0,77,0.00,CLR,SKC,0.00,WeatherDisplay:10.37,2013-09-14 02:14:00,
2013-09-13 21:19:00,52.7,45.7,29.88,East,93,0.0,0.0,77,0.00,CLR,SKC,0.00,WeatherDisplay:10.37,2013-09-14 02:19:00,
2013-09-13 21:24:00,52.6,45.6,29.88,East,93,0.0,1.2,77,0.00,CLR,SKC,0.00,WeatherDisplay:10.37,2013-09-14 02:24:00,
2013-09-13 21:29:00,52.5,45.5,29.88,East,93,0.0,1.2,77,0.00,CLR,SKC,0.00,WeatherDisplay:10.37,2013-09-14 02:29:00,
2013-09-13 21:34:00,52.3,45.3,29.87,East,93,0.0,2.3,77,0.00,CLR,SKC,0.00,WeatherDisplay:10.37,2013-09-14 02:34:00,
2013-09-13 21:39:00,51.9,45.3,29.87,East,93,0.0,0.0,78,0.00,CLR,SKC,0.00,WeatherDisplay:10.37,2013-09-14 02:39:00,
2013-09-13 21:44:00,51.6,45.0,29.87,East,93,0.0,0.0,78,0.00,CLR,SKC,0.00,WeatherDisplay:10.37,2013-09-14 02:44:00,
2013-09-13 21:49:00,51.4,44.8,29.87,East,93,0.0,0.0,78,0.00,CLR,SKC,0.00,WeatherDisplay:10.37,2013-09-14 02:49:00,
2013-09-13 21:54:00,51.1,44.5,29.87,East,93,0.0,0.0,78,0.00,CLR,SKC,0.00,WeatherDisplay:10.37,2013-09-14 02:54:00,
2013-09-13 21:59:00,50.9,44.6,29.87,East,93,0.0,1.2,79,0.00,CLR,SKC,0.00,WeatherDisplay:10.37,2013-09-14 02:59:00,
2013-09-13 22:04:00,50.5,44.2,29.87,East,93,0.0,0.0,79,0.00,CLR,SKC,0.00,WeatherDisplay:10.37,2013-09-14 03:04:00,
2013-09-13 22:09:00,50.2,43.9,29.87,East,93,0.0,0.0,79,0.00,CLR,SKC,0.00,WeatherDisplay:10.37,2013-09-14 03:09:00,
2013-09-13 22:14:00,50.1,43.8,29.87,East,93,0.0,1.0,79,0.00,CLR,SKC,0.00,WeatherDisplay:10.37,2013-09-14 03:14:00,
2013-09-13 22:19:00,50.0,43.7,29.87,East,93,0.0,2.3,79,0.00,CLR,SKC,0.00,WeatherDisplay:10.37,2013-09-14 03:19:00,
2013-09-13 22:24:00,49.9,44.0,29.87,East,93,0.0,0.0,80,0.00,CLR,SKC,0.00,WeatherDisplay:10.37,2013-09-14 03:24:00,
2013-09-13 22:29:00,49.8,43.9,29.87,East,93,0.1,1.0,80,0.00,CLR,SKC,0.00,WeatherDisplay:10.37,2013-09-14 03:29:00,
2013-09-13 22:34:00,49.7,43.8,29.87,East,93,0.7,2.3,80,0.00,CLR,SKC,0.00,WeatherDisplay:10.37,2013-09-14 03:34:00,
2013-09-13 22:39:00,49.6,43.7,29.87,East,93,0.6,2.0,80,0.00,CLR,SKC,0.00,WeatherDisplay:10.37,2013-09-14 03:39:00,
2013-09-13 22:44:00,49.4,43.5,29.87,East,93,0.0,1.2,80,0.00,CLR,SKC,0.00,WeatherDisplay:10.37,2013-09-14 03:44:00,
2013-09-13 22:49:00,49.3,43.4,29.86,East,93,0.0,1.2,80,0.00,CLR,SKC,0.00,WeatherDisplay:10.37,2013-09-14 03:49:00,
2013-09-13 22:54:00,49.2,43.3,29.87,East,93,0.0,0.0,80,0.00,CLR,SKC,0.00,WeatherDisplay:10.37,2013-09-14 03:54:00,
2013-09-13 22:59:00,49.1,43.2,29.87,East,93,0.0,0.0,80,0.00,CLR,SKC,0.00,WeatherDisplay:10.37,2013-09-14 03:59:00,
2013-09-13 23:01:00,49.0,43.1,29.87,East,93,0.0,0.0,80,0.00,CLR,SKC,0.00,WeatherDisplay:10.37,2013-09-14 04:01:00,
2013-09-13 23:02:00,49.0,43.1,29.87,East,93,0.0,0.0,80,0.00,CLR,SKC,0.00,WeatherDisplay:10.37,2013-09-14 04:02:00,
2013-09-13 23:03:00,49.0,43.1,29.87,East,93,0.0,0.0,80,0.00,CLR,SKC,0.00,WeatherDisplay:10.37,2013-09-14 04:03:00,
2013-09-13 23:05:00,48.9,43.0,29.87,East,93,0.0,1.0,80,0.00,CLR,SKC,0.00,WeatherDisplay:10.37,2013-09-14 04:05:00,
2013-09-13 23:07:00,48.9,43.3,29.87,East,93,0.0,1.2,81,0.00,CLR,SKC,0.00,WeatherDisplay:10.37,2013-09-14 04:07:00,
2013-09-13 23:09:00,48.9,43.3,29.87,East,93,0.3,1.2,81,0.00,CLR,SKC,0.00,WeatherDisplay:10.37,2013-09-14 04:09:00,
2013-09-13 23:14:00,48.8,42.9,29.87,East,93,0.7,2.0,80,0.00,CLR,SKC,0.00,WeatherDisplay:10.37,2013-09-14 04:14:00,
2013-09-13 23:19:00,48.8,42.9,29.87,East,93,2.0,2.3,80,0.00,CLR,SKC,0.00,WeatherDisplay:10.37,2013-09-14 04:19:00,
2013-09-13 23:24:00,48.6,42.7,29.87,East,93,0.1,2.0,80,0.00,CLR,SKC,0.00,WeatherDisplay:10.37,2013-09-14 04:24:00,
2013-09-13 23:29:00,48.4,42.5,29.87,East,93,0.2,2.3,80,0.00,CLR,SKC,0.00,WeatherDisplay:10.37,2013-09-14 04:29:00,
2013-09-13 23:34:00,48.3,42.4,29.87,East,93,0.0,0.0,80,0.00,CLR,SKC,0.00,WeatherDisplay:10.37,2013-09-14 04:34:00,
2013-09-13 23:39:00,48.2,42.6,29.87,East,93,0.0,0.0,81,0.00,CLR,SKC,0.00,WeatherDisplay:10.37,2013-09-14 04:39:00,
2013-09-13 23:44:00,48.1,42.5,29.87,East,93,0.0,0.0,81,0.00,CLR,SKC,0.00,WeatherDisplay:10.37,2013-09-14 04:44:00,
2013-09-13 23:49:00,48.0,42.4,29.87,East,93,0.0,1.2,81,0.00,CLR,SKC,0.00,WeatherDisplay:10.37,2013-09-14 04:49:00,
2013-09-13 23:54:00,47.8,42.3,29.87,East,93,0.5,2.3,81,0.00,CLR,SKC,0.00,WeatherDisplay:10.37,2013-09-14 04:54:00,
2013-09-13 23:59:00,47.6,42.1,29.86,East,93,1.9,3.5,81,0.00,CLR,SKC,0.00,WeatherDisplay:10.37,2013-09-14 04:59:00,